Kerem Ka — TCWP5 — position and weather

sailwx.info

Track history (hours):
 
Tides and Currents Weather Stations Pressure Air Temp Water Temp Dewpoint Dewpoint Depression Visibility Wind Speed Wind Dir Waves Ship Positions

Kerem Ka

Last reported at 2017-Oct-22 04:23 UTC. Time now 2017-Oct-22 15:42 UTC.
Position N 40°57' E 028°53'.

Length 121 m; draft 6.4 m.

Type: Tanker. MMSI: 271040038.

Date/timePositionNaut miles runAvg speedWind from/ knotsBaromVisibWave heightAir tempDewpointWater temp
2017-Oct-22 04:23N 40°57' E 028°53'0 0.0
2017-Oct-22 00:44N 40°57' E 028°53'1 2.8
2017-Oct-22 00:18N 40°56' E 028°54'2110.1
2017-Oct-21 22:14N 41°15' E 029°08'2 7.5
2017-Oct-21 22:00N 41°16' E 029°07'5 8.7
2017-Oct-21 21:28N 41°18' E 029°01'1 0.0
2017-Oct-20 18:57N 41°17' E 028°60'17 9.2
2017-Oct-20 17:05N 41°29' E 029°16'111.4
2017-Oct-20 17:00N 41°29' E 029°18'510.0
2017-Oct-20 16:30N 41°32' E 029°22'611.1
2017-Oct-20 16:00N 41°35' E 029°28'510.9
2017-Oct-20 15:30N 41°38' E 029°34'611.1
2017-Oct-20 15:00N 41°41' E 029°41'1110.9
2017-Oct-20 14:00N 41°47' E 029°53'611.2
2017-Oct-20 13:30N 41°50' E 029°59'611.3
2017-Oct-20 13:00N 41°53' E 030°06'611.3
2017-Oct-20 12:28N 41°56' E 030°13'611.3
2017-Oct-20 11:55N 41°59' E 030°20'511.0
2017-Oct-20 11:30N 42°02' E 030°25'2210.7
2017-Oct-20 09:25N 42°14' E 030°51'2110.9
2017-Oct-20 07:30N 42°24' E 031°15'611.7
2017-Oct-20 06:58N 42°28' E 031°22'1511.6
2017-Oct-20 05:40N 42°35' E 031°39'411.7
2017-Oct-20 05:19N 42°38' E 031°44'411.6
2017-Oct-20 05:00N 42°39' E 031°48'1011.6
2017-Oct-20 04:10N 42°45' E 031°60'211.8
2017-Oct-20 03:59N 42°46' E 032°02'611.7
2017-Oct-20 03:30N 42°49' E 032°09'1411.8
2017-Oct-20 02:22N 42°56' E 032°24'3411.6
2017-Oct-19 23:28N 43°13' E 033°04'511.6
2017-Oct-19 23:00N 43°16' E 033°10'611.6
2017-Oct-19 22:30N 43°19' E 033°17'1211.7
2017-Oct-19 21:30N 43°25' E 033°31'611.7
2017-Oct-19 20:59N 43°28' E 033°38'  
2017-Oct-17 14:30N 45°07' E 036°39'2 0.0
2017-Oct-15 19:18N 45°05' E 036°39'3 8.7
2017-Oct-15 18:57N 45°02' E 036°38'311 9.0
2017-Oct-14 08:34N 44°07' E 029°28'1 9.7
2017-Oct-14 08:29N 44°07' E 029°27'5 9.7
2017-Oct-14 08:00N 44°07' E 029°21'510.5
2017-Oct-14 07:30N 44°08' E 029°14'510.8
2017-Oct-14 07:00N 44°09' E 029°06'510.1
2017-Oct-14 06:30N 44°10' E 028°60'5 9.0
2017-Oct-14 06:00N 44°13' E 028°54'5 9.7
2017-Oct-14 05:30N 44°15' E 028°48'5 9.3
2017-Oct-14 05:00N 44°17' E 028°43'3 5.7
2017-Oct-14 04:28N 44°20' E 028°40'0 0.0
2017-Oct-14 03:58N 44°20' E 028°40'0 0.0
2017-Oct-14 03:28N 44°20' E 028°40'0 0.0
2017-Oct-14 02:55N 44°20' E 028°40'0 0.0
2017-Oct-14 02:28N 44°20' E 028°40'0 0.0
2017-Oct-14 01:58N 44°20' E 028°40'0 0.0
2017-Oct-14 01:25N 44°20' E 028°40'0 0.0
2017-Oct-14 00:58N 44°20' E 028°40'0 0.0
2017-Oct-14 00:28N 44°20' E 028°40'0 0.0
2017-Oct-13 23:58N 44°20' E 028°40'0 0.0
2017-Oct-13 23:28N 44°20' E 028°40'0 0.0
2017-Oct-13 22:58N 44°20' E 028°40'0 0.0
2017-Oct-13 22:28N 44°20' E 028°40'0 0.0
2017-Oct-13 21:58N 44°20' E 028°40'0 0.0
2017-Oct-13 21:28N 44°20' E 028°40'0 0.0
2017-Oct-13 20:58N 44°20' E 028°40'0 0.0
2017-Oct-13 20:28N 44°20' E 028°40'0 0.0
2017-Oct-13 19:58N 44°20' E 028°40'0 0.0
2017-Oct-13 19:28N 44°20' E 028°40'0 0.0
2017-Oct-13 18:58N 44°20' E 028°40'0 0.0
2017-Oct-13 18:28N 44°20' E 028°40'0 0.0
2017-Oct-13 17:58N 44°20' E 028°40'0 0.0
2017-Oct-13 17:28N 44°20' E 028°40'0 0.0
2017-Oct-13 16:58N 44°20' E 028°40'0 0.0
2017-Oct-13 16:28N 44°20' E 028°40'0 0.0
2017-Oct-13 15:58N 44°20' E 028°40'0 0.0
2017-Oct-13 15:28N 44°20' E 028°40'0 0.0
2017-Oct-13 14:58N 44°20' E 028°40'0 0.0
2017-Oct-13 14:28N 44°20' E 028°40'0 0.0
2017-Oct-13 13:58N 44°20' E 028°40'0 0.0
2017-Oct-13 13:28N 44°20' E 028°40'0 0.0
2017-Oct-13 12:58N 44°20' E 028°40'0 0.0
2017-Oct-13 12:28N 44°20' E 028°40'0 0.0
2017-Oct-13 11:58N 44°20' E 028°40'0 0.0
2017-Oct-13 11:28N 44°20' E 028°40'0 0.0
2017-Oct-13 10:58N 44°20' E 028°40'0 0.0
2017-Oct-13 10:28N 44°20' E 028°40'0 0.0
2017-Oct-13 09:58N 44°20' E 028°40'0 0.0
2017-Oct-13 09:28N 44°20' E 028°40'0 0.0
2017-Oct-13 08:58N 44°20' E 028°40'0 0.0
2017-Oct-13 08:28N 44°20' E 028°40'0 0.0
2017-Oct-13 07:58N 44°20' E 028°40'0 0.0
2017-Oct-13 07:28N 44°20' E 028°40'0 0.0
2017-Oct-13 06:58N 44°20' E 028°40'0 0.0
2017-Oct-13 06:28N 44°20' E 028°40'0 0.0
2017-Oct-13 05:58N 44°20' E 028°40'0 0.0
2017-Oct-13 05:28N 44°20' E 028°40'0 0.0
2017-Oct-13 04:58N 44°20' E 028°40'0 0.0
2017-Oct-13 04:28N 44°20' E 028°40'0 0.0
2017-Oct-13 03:58N 44°20' E 028°40'0 0.0
2017-Oct-13 03:28N 44°20' E 028°40'0 0.0
2017-Oct-13 02:58N 44°20' E 028°40'0 0.0
2017-Oct-13 02:28N 44°20' E 028°40'0 0.0
2017-Oct-13 01:58N 44°20' E 028°40'0 0.0
2017-Oct-13 01:28N 44°20' E 028°40'0 0.0
2017-Oct-13 00:58N 44°20' E 028°40'0 0.0
2017-Oct-13 00:28N 44°20' E 028°40'0 0.0
2017-Oct-12 23:58N 44°20' E 028°40'0 0.0
2017-Oct-12 23:28N 44°20' E 028°40'0 0.0
2017-Oct-12 22:58N 44°20' E 028°40'0 0.0
2017-Oct-12 22:28N 44°20' E 028°40'0 0.0
2017-Oct-12 21:55N 44°20' E 028°40'0 0.0
2017-Oct-12 21:28N 44°20' E 028°40'0 0.0
2017-Oct-12 20:58N 44°20' E 028°40'0 0.0
2017-Oct-12 20:28N 44°20' E 028°40'0 0.0
2017-Oct-12 19:58N 44°20' E 028°40'0 0.0
2017-Oct-12 19:28N 44°20' E 028°40'0 0.0
2017-Oct-12 18:55N 44°20' E 028°40'0 0.0
2017-Oct-12 18:28N 44°20' E 028°40'0 0.0
2017-Oct-12 17:58N 44°20' E 028°40'0 0.0
2017-Oct-12 17:30N 44°20' E 028°40'0 0.0
2017-Oct-12 17:00N 44°20' E 028°40'0 0.0
2017-Oct-12 16:30N 44°20' E 028°40'0 0.0
2017-Oct-12 16:00N 44°20' E 028°40'0 0.7
2017-Oct-12 15:30N 44°20' E 028°41'2 4.9
2017-Oct-12 15:00N 44°18' E 028°43'3 6.4
2017-Oct-12 14:30N 44°15' E 028°46'5 9.8
2017-Oct-12 14:00N 44°12' E 028°50'510.4
2017-Oct-12 13:30N 44°06' E 028°51'510.8
2017-Oct-12 13:00N 44°01' E 028°52'510.9
2017-Oct-12 12:30N 43°56' E 028°53'510.7
2017-Oct-12 12:00N 43°50' E 028°54'510.2
2017-Oct-12 11:30N 43°45' E 028°54'5 9.8
2017-Oct-12 11:00N 43°40' E 028°55'510.0
2017-Oct-12 10:30N 43°35' E 028°56'510.3
2017-Oct-12 10:00N 43°30' E 028°56'1310.4
2017-Oct-12 08:43N 43°17' E 028°58'  
Track history (hours):
 
Tides and Currents Weather Stations Pressure Air Temp Water Temp Dewpoint Dewpoint Depression Visibility Wind Speed Wind Dir Waves Ship Positions

Kerem Ka

Last reported at 2017-Oct-22 04:23 UTC. Time now 2017-Oct-22 15:42 UTC.
Position N 40°57' E 028°53'.

Length 121 m; draft 6.4 m.

Type: Tanker. MMSI: 271040038.

Date/timePositionNaut miles runAvg speedWind from/ knotsBaromVisibWave heightAir tempDewpointWater temp
2017-Oct-22 04:23N 40°57' E 028°53'0 0.0
2017-Oct-22 00:44N 40°57' E 028°53'1 2.8
2017-Oct-22 00:18N 40°56' E 028°54'2110.1
2017-Oct-21 22:14N 41°15' E 029°08'2 7.5
2017-Oct-21 22:00N 41°16' E 029°07'5 8.7
2017-Oct-21 21:28N 41°18' E 029°01'1 0.0
2017-Oct-20 18:57N 41°17' E 028°60'17 9.2
2017-Oct-20 17:05N 41°29' E 029°16'111.4
2017-Oct-20 17:00N 41°29' E 029°18'510.0
2017-Oct-20 16:30N 41°32' E 029°22'611.1
2017-Oct-20 16:00N 41°35' E 029°28'510.9
2017-Oct-20 15:30N 41°38' E 029°34'611.1
2017-Oct-20 15:00N 41°41' E 029°41'1110.9
2017-Oct-20 14:00N 41°47' E 029°53'611.2
2017-Oct-20 13:30N 41°50' E 029°59'611.3
2017-Oct-20 13:00N 41°53' E 030°06'611.3
2017-Oct-20 12:28N 41°56' E 030°13'611.3
2017-Oct-20 11:55N 41°59' E 030°20'511.0
2017-Oct-20 11:30N 42°02' E 030°25'2210.7
2017-Oct-20 09:25N 42°14' E 030°51'2110.9
2017-Oct-20 07:30N 42°24' E 031°15'611.7
2017-Oct-20 06:58N 42°28' E 031°22'1511.6
2017-Oct-20 05:40N 42°35' E 031°39'411.7
2017-Oct-20 05:19N 42°38' E 031°44'411.6
2017-Oct-20 05:00N 42°39' E 031°48'1011.6
2017-Oct-20 04:10N 42°45' E 031°60'211.8
2017-Oct-20 03:59N 42°46' E 032°02'611.7
2017-Oct-20 03:30N 42°49' E 032°09'1411.8
2017-Oct-20 02:22N 42°56' E 032°24'3411.6
2017-Oct-19 23:28N 43°13' E 033°04'511.6
2017-Oct-19 23:00N 43°16' E 033°10'611.6
2017-Oct-19 22:30N 43°19' E 033°17'1211.7
2017-Oct-19 21:30N 43°25' E 033°31'611.7
2017-Oct-19 20:59N 43°28' E 033°38'  
2017-Oct-17 14:30N 45°07' E 036°39'2 0.0
2017-Oct-15 19:18N 45°05' E 036°39'3 8.7
2017-Oct-15 18:57N 45°02' E 036°38'311 9.0
2017-Oct-14 08:34N 44°07' E 029°28'1 9.7
2017-Oct-14 08:29N 44°07' E 029°27'5 9.7
2017-Oct-14 08:00N 44°07' E 029°21'510.5
2017-Oct-14 07:30N 44°08' E 029°14'510.8
2017-Oct-14 07:00N 44°09' E 029°06'510.1
2017-Oct-14 06:30N 44°10' E 028°60'5 9.0
2017-Oct-14 06:00N 44°13' E 028°54'5 9.7
2017-Oct-14 05:30N 44°15' E 028°48'5 9.3
2017-Oct-14 05:00N 44°17' E 028°43'3 5.7
2017-Oct-14 04:28N 44°20' E 028°40'0 0.0
2017-Oct-14 03:58N 44°20' E 028°40'0 0.0
2017-Oct-14 03:28N 44°20' E 028°40'0 0.0
2017-Oct-14 02:55N 44°20' E 028°40'0 0.0
2017-Oct-14 02:28N 44°20' E 028°40'0 0.0
2017-Oct-14 01:58N 44°20' E 028°40'0 0.0
2017-Oct-14 01:25N 44°20' E 028°40'0 0.0
2017-Oct-14 00:58N 44°20' E 028°40'0 0.0
2017-Oct-14 00:28N 44°20' E 028°40'0 0.0
2017-Oct-13 23:58N 44°20' E 028°40'0 0.0
2017-Oct-13 23:28N 44°20' E 028°40'0 0.0
2017-Oct-13 22:58N 44°20' E 028°40'0 0.0
2017-Oct-13 22:28N 44°20' E 028°40'0 0.0
2017-Oct-13 21:58N 44°20' E 028°40'0 0.0
2017-Oct-13 21:28N 44°20' E 028°40'0 0.0
2017-Oct-13 20:58N 44°20' E 028°40'0 0.0
2017-Oct-13 20:28N 44°20' E 028°40'0 0.0
2017-Oct-13 19:58N 44°20' E 028°40'0 0.0
2017-Oct-13 19:28N 44°20' E 028°40'0 0.0
2017-Oct-13 18:58N 44°20' E 028°40'0 0.0
2017-Oct-13 18:28N 44°20' E 028°40'0 0.0
2017-Oct-13 17:58N 44°20' E 028°40'0 0.0
2017-Oct-13 17:28N 44°20' E 028°40'0 0.0
2017-Oct-13 16:58N 44°20' E 028°40'0 0.0
2017-Oct-13 16:28N 44°20' E 028°40'0 0.0
2017-Oct-13 15:58N 44°20' E 028°40'0 0.0
2017-Oct-13 15:28N 44°20' E 028°40'0 0.0
2017-Oct-13 14:58N 44°20' E 028°40'0 0.0
2017-Oct-13 14:28N 44°20' E 028°40'0 0.0
2017-Oct-13 13:58N 44°20' E 028°40'0 0.0
2017-Oct-13 13:28N 44°20' E 028°40'0 0.0
2017-Oct-13 12:58N 44°20' E 028°40'0 0.0
2017-Oct-13 12:28N 44°20' E 028°40'0 0.0
2017-Oct-13 11:58N 44°20' E 028°40'0 0.0
2017-Oct-13 11:28N 44°20' E 028°40'0 0.0
2017-Oct-13 10:58N 44°20' E 028°40'0 0.0
2017-Oct-13 10:28N 44°20' E 028°40'0 0.0
2017-Oct-13 09:58N 44°20' E 028°40'0 0.0
2017-Oct-13 09:28N 44°20' E 028°40'0 0.0
2017-Oct-13 08:58N 44°20' E 028°40'0 0.0
2017-Oct-13 08:28N 44°20' E 028°40'0 0.0
2017-Oct-13 07:58N 44°20' E 028°40'0 0.0
2017-Oct-13 07:28N 44°20' E 028°40'0 0.0
2017-Oct-13 06:58N 44°20' E 028°40'0 0.0
2017-Oct-13 06:28N 44°20' E 028°40'0 0.0
2017-Oct-13 05:58N 44°20' E 028°40'0 0.0
2017-Oct-13 05:28N 44°20' E 028°40'0 0.0
2017-Oct-13 04:58N 44°20' E 028°40'0 0.0
2017-Oct-13 04:28N 44°20' E 028°40'0 0.0
2017-Oct-13 03:58N 44°20' E 028°40'0 0.0
2017-Oct-13 03:28N 44°20' E 028°40'0 0.0
2017-Oct-13 02:58N 44°20' E 028°40'0 0.0
2017-Oct-13 02:28N 44°20' E 028°40'0 0.0
2017-Oct-13 01:58N 44°20' E 028°40'0 0.0
2017-Oct-13 01:28N 44°20' E 028°40'0 0.0
2017-Oct-13 00:58N 44°20' E 028°40'0 0.0
2017-Oct-13 00:28N 44°20' E 028°40'0 0.0
2017-Oct-12 23:58N 44°20' E 028°40'0 0.0
2017-Oct-12 23:28N 44°20' E 028°40'0 0.0
2017-Oct-12 22:58N 44°20' E 028°40'0 0.0
2017-Oct-12 22:28N 44°20' E 028°40'0 0.0
2017-Oct-12 21:55N 44°20' E 028°40'0 0.0
2017-Oct-12 21:28N 44°20' E 028°40'0 0.0
2017-Oct-12 20:58N 44°20' E 028°40'0 0.0
2017-Oct-12 20:28N 44°20' E 028°40'0 0.0
2017-Oct-12 19:58N 44°20' E 028°40'0 0.0
2017-Oct-12 19:28N 44°20' E 028°40'0 0.0
2017-Oct-12 18:55N 44°20' E 028°40'0 0.0
2017-Oct-12 18:28N 44°20' E 028°40'0 0.0
2017-Oct-12 17:58N 44°20' E 028°40'0 0.0
2017-Oct-12 17:30N 44°20' E 028°40'0 0.0
2017-Oct-12 17:00N 44°20' E 028°40'0 0.0
2017-Oct-12 16:30N 44°20' E 028°40'0 0.0
2017-Oct-12 16:00N 44°20' E 028°40'0 0.7
2017-Oct-12 15:30N 44°20' E 028°41'2 4.9
2017-Oct-12 15:00N 44°18' E 028°43'3 6.4
2017-Oct-12 14:30N 44°15' E 028°46'5 9.8
2017-Oct-12 14:00N 44°12' E 028°50'510.4
2017-Oct-12 13:30N 44°06' E 028°51'510.8
2017-Oct-12 13:00N 44°01' E 028°52'510.9
2017-Oct-12 12:30N 43°56' E 028°53'510.7
2017-Oct-12 12:00N 43°50' E 028°54'510.2
2017-Oct-12 11:30N 43°45' E 028°54'5 9.8
2017-Oct-12 11:00N 43°40' E 028°55'510.0
2017-Oct-12 10:30N 43°35' E 028°56'510.3
2017-Oct-12 10:00N 43°30' E 028°56'1310.4
2017-Oct-12 08:43N 43°17' E 028°58'  

Dump ship's entire track history